KBOI/BOI METAR and TAF weather

Enter ICAO airport designator
Station Type Date Time Source
KBOI METAR 2019/10/16 18:53 UTC NOAA

KBOI 161853Z 13011KT 10SM CLR 24/M08 A2996 RMK AO2 SLP128 T02441078 $


Station Type Date Time Source
KBOI Decoded METAR 2019/10/16 18:53 UTC NOAA

BOISE AIR TERMINAL, ID, United States (KBOI) 43-34N 116-14W 875M
Oct 16, 2019 - 02:53 PM EDT / 2019.10.16 1853 UTC
Wind: from the SE (130 degrees) at 13 MPH (11 KT):0
Visibility: 10 mile(s):0
Sky conditions: clear
Temperature: 75.9 F (24.4 C)
Dew Point: 18.0 F (-7.8 C)
Relative Humidity: 11%
Pressure (altimeter): 29.96 in. Hg (1014 hPa)
ob: KBOI 161853Z 13011KT 10SM CLR 24/M08 A2996 RMK AO2 SLP128 T02441078
cycle: 19

Station Type Date Time Source
KBOI TAF 2019/10/16 18:22 UTC NOAA

TAF KBOI 161720Z 1618/1718 13010KT P6SM SCT200
FM170100 VRB05KT P6SM BKN200
FM170900 31006KT P6SM BKN120
FM171200 30006KT P6SM VCSH BKN050 BKN100

Example: see airport list